Time;durP1;ratioP1;P1;durP2;ratioP2;P2;SDS_P1;SDS_P2;PMS_P1;PMS_P2;Temp;Humidity;BMP_temperature;BMP_pressure;BME280_temperature;BME280_humidity;BME280_pressure;Samples;Min_cycle;Max_cycle;Signal;HPM_P1;HPM_P2
2023/03/12 00:02:02;;;;;;;9.27;5.32;;;;;;;1.23;96.47;101157.38;5074148;28;20020;-78
2023/03/12 00:04:28;;;;;;;10.27;5.10;;;;;;;1.21;94.62;101151.34;5083158;28;20028;-78
2023/03/12 00:06:53;;;;;;;7.22;4.90;;;;;;;1.28;93.77;101158.34;5073284;28;20360;-78
2023/03/12 00:09:19;;;;;;;9.95;5.22;;;;;;;1.29;93.79;101150.66;5072910;28;20046;-78
2023/03/12 00:11:44;;;;;;;8.70;5.07;;;;;;;1.31;92.59;101145.56;5071780;28;20089;-78
2023/03/12 00:14:09;;;;;;;10.25;5.20;;;;;;;1.32;93.40;101155.88;5072513;28;20020;-78
2023/03/12 00:16:35;;;;;;;10.65;5.03;;;;;;;1.30;92.25;101141.25;5073394;28;20035;-78
2023/03/12 00:19:00;;;;;;;10.63;5.43;;;;;;;1.34;92.90;101143.03;5073773;28;20093;-78
2023/03/12 00:21:26;;;;;;;9.27;5.35;;;;;;;1.32;91.75;101134.47;5072786;28;20522;-78
2023/03/12 00:23:52;;;;;;;8.82;5.40;;;;;;;1.34;92.78;101132.75;5072335;28;20043;-77
2023/03/12 00:26:19;;;;;;;12.70;5.35;;;;;;;1.29;94.32;101122.41;5073557;28;20017;-78
2023/03/12 00:28:46;;;;;;;9.20;5.65;;;;;;;1.30;94.12;101113.84;5071390;28;20476;-78
2023/03/12 00:31:39;;;;;;;11.02;5.68;;;;;;;1.33;93.00;101111.34;5072922;28;20077;-78
2023/03/12 00:34:04;;;;;;;10.35;6.07;;;;;;;1.32;93.48;101103.63;5059741;28;20024;-78
2023/03/12 00:36:31;;;;;;;9.57;5.00;;;;;;;1.33;92.68;101106.22;5070114;28;20447;-78
2023/03/12 00:38:58;;;;;;;11.65;4.80;;;;;;;1.30;92.28;101103.59;5073082;28;20085;-78
2023/03/12 00:41:25;;;;;;;8.35;5.10;;;;;;;1.35;92.32;101113.97;5073186;28;20020;-78
2023/03/12 00:43:51;;;;;;;8.93;5.07;;;;;;;1.37;92.33;101107.13;5071852;28;20036;-78
2023/03/12 00:46:18;;;;;;;7.05;4.93;;;;;;;1.35;92.87;101108.81;5072927;28;20525;-78
2023/03/12 00:48:44;;;;;;;6.80;4.88;;;;;;;1.34;93.73;101102.81;5071248;28;20024;-78
2023/03/12 00:51:09;;;;;;;12.27;5.20;;;;;;;1.37;92.78;101100.31;5071986;28;20183;-77
2023/03/12 00:53:35;;;;;;;9.13;5.75;;;;;;;1.38;93.18;101088.34;5070940;28;20124;-78
2023/03/12 00:56:01;;;;;;;9.75;4.97;;;;;;;1.39;94.22;101092.63;5072061;28;20027;-78
2023/03/12 00:58:26;;;;;;;8.13;4.97;;;;;;;1.35;92.17;101090.84;5072762;28;20106;-78
2023/03/12 01:00:51;;;;;;;8.25;5.05;;;;;;;1.35;90.84;101088.28;5071578;28;20040;-78
2023/03/12 01:03:17;;;;;;;9.30;5.50;;;;;;;1.43;92.66;101091.84;5071878;28;20042;-78
2023/03/12 01:05:42;;;;;;;9.40;5.32;;;;;;;1.38;95.07;101080.63;5071297;28;20108;-78
2023/03/12 01:08:09;;;;;;;8.30;4.97;;;;;;;1.42;92.38;101090.09;5072729;28;20016;-78
2023/03/12 01:10:36;;;;;;;11.05;5.95;;;;;;;1.40;95.23;101076.34;5070225;28;20020;-78
2023/03/12 01:13:02;;;;;;;11.68;5.95;;;;;;;1.43;93.60;101073.00;5086989;28;20031;-78
2023/03/12 01:15:28;;;;;;;6.60;5.00;;;;;;;1.42;93.37;101072.13;5079712;28;20024;-78
2023/03/12 01:17:53;;;;;;;10.25;5.85;;;;;;;1.44;92.86;101067.00;5079113;28;20108;-78
2023/03/12 01:20:19;;;;;;;7.32;5.18;;;;;;;1.44;93.02;101065.31;5078884;28;20033;-78
2023/03/12 01:22:44;;;;;;;10.75;5.72;;;;;;;1.44;92.48;101062.75;5081229;28;20029;-78
2023/03/12 01:25:10;;;;;;;7.35;5.38;;;;;;;1.44;92.67;101061.88;5079459;28;20016;-78
2023/03/12 01:27:36;;;;;;;9.50;5.90;;;;;;;1.39;92.87;101049.81;5086460;28;20529;-78
2023/03/12 01:30:03;;;;;;;11.13;5.63;;;;;;;1.46;92.33;101062.75;5079469;28;20032;-78
2023/03/12 01:32:28;;;;;;;9.23;5.88;;;;;;;1.43;91.42;101068.72;5073989;28;20025;-78
2023/03/12 01:34:54;;;;;;;9.30;5.82;;;;;;;1.48;92.59;101071.38;5091983;28;20015;-78
2023/03/12 01:37:19;;;;;;;14.10;5.85;;;;;;;1.48;92.16;101069.66;5084961;28;20447;-78
2023/03/12 01:39:44;;;;;;;9.35;5.90;;;;;;;1.48;93.25;101063.66;5084204;28;20035;-78
2023/03/12 01:42:10;;;;;;;10.63;5.65;;;;;;;1.47;93.21;101062.81;5092356;28;20089;-78
2023/03/12 01:45:26;;;;;;;7.70;5.72;;;;;;;1.47;93.65;101057.66;5091606;28;20139;-78
2023/03/12 01:47:51;;;;;;;12.20;6.22;;;;;;;1.42;92.67;101040.44;5051029;28;20045;-78
2023/03/12 01:50:16;;;;;;;12.50;6.57;;;;;;;1.48;92.31;101048.25;5091382;28;20017;-78
2023/03/12 01:52:42;;;;;;;12.60;6.40;;;;;;;1.46;93.76;101037.94;5091454;28;20032;-78
2023/03/12 01:55:16;;;;;;;9.20;6.30;;;;;;;1.50;91.02;101042.28;5092515;28;20035;-78
2023/03/12 01:57:56;;;;;;;11.27;5.95;;;;;;;1.47;92.10;101037.13;5084385;28;20123;-78
2023/03/12 02:00:26;;;;;;;9.13;5.85;;;;;;;1.50;92.23;101038.84;5085994;28;20051;-78
2023/03/12 02:02:58;;;;;;;14.88;6.40;;;;;;;1.50;91.15;101033.72;5081057;28;20032;-78
2023/03/12 02:05:37;;;;;;;13.00;6.38;;;;;;;1.50;90.61;101031.13;5091859;28;20521;-78
2023/03/12 02:08:03;;;;;;;12.60;6.22;;;;;;;1.51;92.83;101023.47;5091930;28;20103;-78
2023/03/12 02:10:29;;;;;;;11.65;6.07;;;;;;;1.47;91.67;101021.69;5091704;28;20523;-77
2023/03/12 02:12:54;;;;;;;10.65;6.30;;;;;;;1.46;90.19;101014.81;5082757;28;20024;-78
2023/03/12 02:15:20;;;;;;;10.98;5.45;;;;;;;1.52;91.27;101014.06;5082651;28;20023;-78
2023/03/12 02:17:45;;;;;;;12.40;6.18;;;;;;;1.52;91.62;101016.63;5089435;28;20471;-78
2023/03/12 02:20:32;;;;;;;9.25;6.10;;;;;;;1.51;91.52;101007.19;5078795;28;20151;-78
2023/03/12 02:23:24;;;;;;;9.30;6.63;;;;;;;1.52;92.78;101003.78;5071854;28;20032;-78
2023/03/12 02:25:52;;;;;;;21.83;6.45;;;;;;;1.43;94.10;100988.22;5064083;28;20028;-78
2023/03/12 02:28:20;;;;;;;16.27;6.38;;;;;;;1.51;92.71;100991.78;5071570;28;20389;-77
2023/03/12 02:30:48;;;;;;;8.90;6.13;;;;;;;1.55;91.66;100994.41;5079745;28;20027;-78
2023/03/12 02:33:14;;;;;;;10.57;6.22;;;;;;;1.54;93.28;101002.97;5084228;28;20039;-78
2023/03/12 02:35:41;;;;;;;11.82;6.97;;;;;;;1.54;92.97;101000.41;5079303;28;20476;-78
2023/03/12 02:38:34;;;;;;;11.27;6.93;;;;;;;1.55;94.15;100998.69;5092055;28;20020;-78
2023/03/12 02:41:03;;;;;;;10.60;5.82;;;;;;;1.53;92.05;101001.22;5082546;28;20472;-78
2023/03/12 02:43:28;;;;;;;11.80;6.68;;;;;;;1.43;94.06;100983.94;5082887;28;20038;-78
2023/03/12 02:45:54;;;;;;;9.55;6.03;;;;;;;1.53;93.93;101001.22;5095652;28;20028;-77
2023/03/12 02:48:20;;;;;;;12.10;6.38;;;;;;;1.47;93.13;100998.56;5086079;28;20456;-78
2023/03/12 02:50:45;;;;;;;9.80;6.68;;;;;;;1.52;93.47;101004.63;5095515;28;20031;-78
2023/03/12 02:53:10;;;;;;;17.23;6.80;;;;;;;1.53;93.67;101002.94;5095264;28;20467;-78
2023/03/12 02:55:35;;;;;;;14.13;6.57;;;;;;;1.51;94.74;101002.91;5083949;28;20028;-78
2023/03/12 02:58:01;;;;;;;9.85;6.43;;;;;;;1.46;95.78;100996.81;5086469;28;20448;-78
2023/03/12 03:00:26;;;;;;;10.98;7.05;;;;;;;1.47;97.03;101005.38;5095288;28;20101;-78
2023/03/12 03:02:51;;;;;;;10.68;6.38;;;;;;;1.40;99.26;100995.00;5094341;28;20025;-78
2023/03/12 03:05:16;;;;;;;8.95;6.57;;;;;;;1.27;100.00;100985.38;5079516;28;20095;-78
2023/03/12 03:07:42;;;;;;;11.10;6.88;;;;;;;1.24;100.00;100984.47;5083969;28;20480;-77
2023/03/12 03:10:08;;;;;;;14.27;6.85;;;;;;;1.11;100.00;100970.53;5091793;28;20063;-77
2023/03/12 03:12:35;;;;;;;11.80;7.30;;;;;;;1.10;100.00;100995.38;5094776;28;20016;-78
2023/03/12 03:15:01;;;;;;;12.88;8.18;;;;;;;1.01;100.00;100984.06;5094928;28;20061;-78
2023/03/12 03:17:27;;;;;;;9.25;6.18;;;;;;;0.97;100.00;100982.28;5094230;28;20111;-78
2023/03/12 03:19:52;;;;;;;15.70;7.32;;;;;;;0.98;100.00;100995.16;5084630;28;20064;-78
2023/03/12 03:22:20;;;;;;;9.98;6.25;;;;;;;0.97;100.00;100993.41;5076560;28;20023;-78
2023/03/12 03:24:45;;;;;;;11.35;7.15;;;;;;;0.97;100.00;100990.84;5094059;28;20028;-77
2023/03/12 03:27:11;;;;;;;11.65;6.80;;;;;;;0.97;100.00;100992.56;5094566;28;20024;-78
2023/03/12 03:29:37;;;;;;;10.88;6.43;;;;;;;0.98;100.00;100984.00;5094610;28;20028;-78
2023/03/12 03:32:03;;;;;;;11.88;6.18;;;;;;;0.96;100.00;100973.72;5086535;28;20493;-78
2023/03/12 03:34:28;;;;;;;16.27;6.32;;;;;;;0.97;100.00;100967.75;5091029;28;20039;-78
2023/03/12 03:36:53;;;;;;;10.32;6.07;;;;;;;0.93;100.00;100965.97;5086803;28;20081;-78
2023/03/12 03:39:19;;;;;;;14.50;6.15;;;;;;;0.99;100.00;100971.22;5084991;28;20033;-77
2023/03/12 03:41:46;;;;;;;12.77;6.13;;;;;;;0.99;100.00;100968.66;5071844;28;20055;-78
2023/03/12 03:44:12;;;;;;;11.85;6.32;;;;;;;1.01;100.00;100966.97;5074878;28;20024;-78
2023/03/12 03:46:37;;;;;;;12.38;6.43;;;;;;;1.01;100.00;100956.69;5076112;28;20443;-78
2023/03/12 03:49:02;;;;;;;13.95;7.03;;;;;;;1.04;100.00;100955.88;5083573;28;20452;-78
2023/03/12 03:51:28;;;;;;;12.45;6.63;;;;;;;1.04;100.00;100941.34;5085526;28;20028;-78
2023/03/12 03:53:53;;;;;;;10.63;6.95;;;;;;;1.05;100.00;100935.38;5083734;28;20548;-78
2023/03/12 03:56:19;;;;;;;13.00;6.55;;;;;;;1.03;100.00;100938.75;5081210;28;20028;-78
2023/03/12 03:58:44;;;;;;;12.18;6.72;;;;;;;1.02;100.00;100919.94;5084087;28;20034;-78
2023/03/12 04:01:12;;;;;;;11.13;6.97;;;;;;;1.02;100.00;100925.06;5093857;28;20135;-78
2023/03/12 04:03:37;;;;;;;11.63;6.97;;;;;;;1.01;100.00;100928.44;5082159;28;20067;-78
2023/03/12 04:06:05;;;;;;;15.10;6.85;;;;;;;1.03;100.00;100931.91;5093308;28;20023;-78
2023/03/12 04:08:34;;;;;;;12.63;6.50;;;;;;;1.03;100.00;100925.91;5093356;28;20047;-78
2023/03/12 04:10:59;;;;;;;16.27;7.00;;;;;;;0.97;100.00;100907.84;5087153;28;20048;-78
2023/03/12 04:13:24;;;;;;;11.45;7.28;;;;;;;1.10;100.00;100915.75;5079843;28;20074;-78
2023/03/12 04:15:52;;;;;;;10.55;6.75;;;;;;;1.19;100.00;100917.63;5093717;28;20036;-78
2023/03/12 04:18:18;;;;;;;12.27;6.57;;;;;;;1.19;100.00;100901.38;5091830;28;20020;-78
2023/03/12 04:20:43;;;;;;;12.63;6.65;;;;;;;1.25;100.00;100904.03;5092837;28;20016;-78
2023/03/12 04:23:09;;;;;;;14.80;6.78;;;;;;;1.27;100.00;100904.91;5094031;28;20193;-78
2023/03/12 04:25:34;;;;;;;13.13;6.60;;;;;;;1.17;100.00;100884.19;5093574;28;20523;-78
2023/03/12 04:28:00;;;;;;;11.70;6.40;;;;;;;1.32;100.00;100893.00;5087661;28;20466;-78
2023/03/12 04:30:26;;;;;;;13.30;6.47;;;;;;;1.33;100.00;100889.59;5082708;28;20728;-78
2023/03/12 04:32:52;;;;;;;16.73;7.22;;;;;;;1.35;100.00;100880.22;5092372;28;20008;-78
2023/03/12 04:35:18;;;;;;;11.70;5.82;;;;;;;1.37;100.00;100887.09;5092587;28;20020;-77
2023/03/12 04:37:45;;;;;;;8.65;5.72;;;;;;;1.32;100.00;100863.03;5093310;28;20072;-78
2023/03/12 04:40:11;;;;;;;8.18;6.18;;;;;;;1.31;100.00;100870.72;5093522;28;20016;-78
2023/03/12 04:42:36;;;;;;;11.00;6.15;;;;;;;1.32;100.00;100863.03;5092374;28;20028;-78
2023/03/12 04:45:05;;;;;;;10.73;5.90;;;;;;;1.36;100.00;100856.25;5087094;28;20031;-78
2023/03/12 04:47:31;;;;;;;9.85;6.45;;;;;;;1.38;100.00;100875.97;5085664;28;20023;-78
2023/03/12 04:49:56;;;;;;;11.30;6.55;;;;;;;1.43;100.00;100880.31;5089859;28;20034;-78
2023/03/12 04:52:22;;;;;;;12.07;6.32;;;;;;;1.41;100.00;100870.03;5081487;28;20029;-78
2023/03/12 04:54:47;;;;;;;10.25;6.07;;;;;;;1.46;100.00;100870.94;5087372;28;20111;-78
2023/03/12 04:57:13;;;;;;;9.43;5.97;;;;;;;1.45;100.00;100858.94;5091700;28;20024;-78
2023/03/12 04:59:38;;;;;;;13.98;6.45;;;;;;;1.53;100.00;100862.47;5070210;28;20029;-78
2023/03/12 05:02:03;;;;;;;15.05;6.57;;;;;;;1.53;100.00;100852.19;5085013;28;20056;-78
2023/03/12 05:04:30;;;;;;;9.30;5.80;;;;;;;1.58;100.00;100849.69;5072457;28;20139;-78
2023/03/12 05:06:55;;;;;;;7.13;5.93;;;;;;;1.55;100.00;100840.22;5092491;28;20099;-78
2023/03/12 05:09:20;;;;;;;9.30;5.97;;;;;;;1.63;100.00;100840.31;5087716;28;20085;-78
2023/03/12 05:11:46;;;;;;;10.68;5.80;;;;;;;1.63;100.00;100827.47;5077509;28;20020;-78
2023/03/12 05:14:11;;;;;;;11.65;6.35;;;;;;;1.64;100.00;100824.94;5071303;28;20099;-78
2023/03/12 05:16:37;;;;;;;11.90;5.90;;;;;;;1.64;100.00;100830.09;5086863;28;20031;-78
2023/03/12 05:19:03;;;;;;;12.30;5.85;;;;;;;1.60;100.00;100827.44;5079460;28;20028;-77
2023/03/12 05:21:29;;;;;;;12.98;6.38;;;;;;;1.62;100.00;100836.91;5074267;28;20028;-78
2023/03/12 05:23:54;;;;;;;11.13;5.93;;;;;;;1.62;100.00;100815.47;5073742;28;20533;-78
2023/03/12 05:26:32;;;;;;;9.05;6.43;;;;;;;1.62;100.00;100826.63;5078790;28;20020;-78
2023/03/12 05:28:59;;;;;;;11.90;5.53;;;;;;;1.62;100.00;100825.75;5076387;28;20040;-77
2023/03/12 05:31:31;;;;;;;12.90;6.05;;;;;;;1.61;100.00;100824.91;5079134;28;20032;-78
2023/03/12 05:33:57;;;;;;;14.13;6.13;;;;;;;1.62;100.00;100830.91;5084125;28;20472;-77
2023/03/12 05:36:23;;;;;;;12.48;5.88;;;;;;;1.57;100.00;100819.69;5064338;28;20069;-77
2023/03/12 05:38:48;;;;;;;10.00;6.07;;;;;;;1.64;100.00;100814.66;5078822;28;20025;-78
2023/03/12 05:41:23;;;;;;;13.30;6.25;;;;;;;1.66;100.00;100811.25;5084964;28;20064;-77
2023/03/12 05:43:48;;;;;;;12.60;6.47;;;;;;;1.67;100.00;100812.97;5078938;28;20036;-77
2023/03/12 05:46:14;;;;;;;16.52;6.53;;;;;;;1.67;100.00;100810.38;5085294;28;20352;-77
2023/03/12 05:48:39;;;;;;;10.70;6.05;;;;;;;1.66;100.00;100811.25;5082149;28;20127;-77
2023/03/12 05:51:04;;;;;;;12.15;5.43;;;;;;;1.66;100.00;100811.25;5087232;28;20028;-78
2023/03/12 05:53:30;;;;;;;12.98;6.55;;;;;;;1.61;100.00;100806.91;5080695;28;20077;-78
2023/03/12 05:56:01;;;;;;;12.45;6.07;;;;;;;1.67;100.00;100802.69;5069524;28;20037;-77
2023/03/12 05:58:27;;;;;;;13.80;6.72;;;;;;;1.68;100.00;100810.41;5084313;28;20024;-78
2023/03/12 06:00:52;;;;;;;11.15;6.05;;;;;;;1.70;100.00;100803.59;5091993;28;20117;-78
2023/03/12 06:03:17;;;;;;;12.35;6.93;;;;;;;1.71;100.00;100801.91;5085163;28;20106;-78
2023/03/12 06:05:43;;;;;;;10.95;6.35;;;;;;;1.71;100.00;100804.47;5078475;28;20024;-78
2023/03/12 06:08:08;;;;;;;13.65;6.90;;;;;;;1.72;100.00;100808.75;5078729;28;20020;-78
2023/03/12 06:10:36;;;;;;;13.68;5.93;;;;;;;1.71;100.00;100807.88;5082713;28;20029;-77
2023/03/12 06:13:02;;;;;;;11.50;6.15;;;;;;;1.71;100.00;100809.59;5077856;28;20090;-78
2023/03/12 06:15:27;;;;;;;12.88;6.30;;;;;;;1.74;100.00;100810.50;5095562;28;20478;-78
2023/03/12 06:17:52;;;;;;;14.88;6.43;;;;;;;1.81;100.00;100816.56;5080265;28;20435;-78
2023/03/12 06:20:18;;;;;;;11.13;6.38;;;;;;;1.81;100.00;100817.44;5079097;28;20115;-78
2023/03/12 06:22:43;;;;;;;12.43;7.18;;;;;;;1.82;100.00;100824.28;5090054;28;20024;-78
2023/03/12 06:25:09;;;;;;;11.73;6.72;;;;;;;1.82;100.00;100833.72;5096069;28;20111;-78
2023/03/12 06:27:34;;;;;;;15.88;7.07;;;;;;;1.86;100.00;100827.75;5094748;28;20017;-77
2023/03/12 06:29:59;;;;;;;12.10;7.28;;;;;;;1.87;100.00;100827.78;5084510;28;20040;-78
2023/03/12 06:32:25;;;;;;;13.60;6.60;;;;;;;1.90;100.00;100818.38;5086847;28;20032;-78
2023/03/12 06:34:50;;;;;;;10.93;6.97;;;;;;;1.92;100.00;100820.13;5095148;28;20020;-78
2023/03/12 06:37:15;;;;;;;13.55;7.32;;;;;;;1.91;100.00;100812.41;5096014;28;20119;-78
2023/03/12 06:39:41;;;;;;;14.85;7.35;;;;;;;1.88;100.00;100808.94;5095206;28;20028;-78
2023/03/12 06:42:06;;;;;;;13.27;7.40;;;;;;;1.77;100.00;100789.97;5095121;28;20032;-78
2023/03/12 06:44:32;;;;;;;12.65;7.63;;;;;;;1.88;100.00;100800.38;5094549;28;20062;-78
2023/03/12 06:46:57;;;;;;;14.02;7.43;;;;;;;1.90;100.00;100790.97;5074491;28;20486;-79
2023/03/12 06:49:23;;;;;;;12.55;7.85;;;;;;;1.92;100.00;100790.97;5094812;28;20028;-78
2023/03/12 06:51:49;;;;;;;15.25;7.82;;;;;;;1.88;100.00;100772.09;5095405;28;20024;-79
2023/03/12 06:54:14;;;;;;;15.00;8.35;;;;;;;1.93;100.00;100774.69;5095449;28;20035;-79
2023/03/12 06:56:40;;;;;;;15.48;7.97;;;;;;;1.94;100.00;100781.59;5094567;28;20027;-79
2023/03/12 06:59:06;;;;;;;15.30;8.35;;;;;;;1.91;100.00;100772.13;5095320;28;20043;-80
2023/03/12 07:01:31;;;;;;;17.48;8.68;;;;;;;1.88;100.00;100767.81;5090758;28;20032;-79
2023/03/12 07:03:56;;;;;;;18.95;8.88;;;;;;;1.96;100.00;100775.63;5083919;28;20036;-79
2023/03/12 07:06:22;;;;;;;17.45;8.77;;;;;;;1.98;100.00;100766.19;5084366;28;20024;-79
2023/03/12 07:08:48;;;;;;;17.23;8.70;;;;;;;2.00;100.00;100763.66;5094161;28;20020;-79
2023/03/12 07:11:14;;;;;;;14.48;8.25;;;;;;;2.00;100.00;100767.09;5092408;28;20041;-79
2023/03/12 07:13:39;;;;;;;14.98;8.32;;;;;;;2.00;100.00;100755.94;5077873;28;20031;-79
2023/03/12 07:16:05;;;;;;;17.40;8.93;;;;;;;2.00;100.00;100764.50;5082074;28;20074;-79
2023/03/12 07:18:31;;;;;;;16.77;9.13;;;;;;;2.02;100.00;100762.81;5081764;28;20036;-79
2023/03/12 07:20:56;;;;;;;19.90;9.30;;;;;;;2.01;100.00;100758.50;5074872;28;20096;-79
2023/03/12 07:23:22;;;;;;;16.88;9.65;;;;;;;2.07;100.00;100771.44;5074595;28;20382;-79
2023/03/12 07:25:47;;;;;;;18.70;9.93;;;;;;;2.06;100.00;100761.13;5087788;28;20024;-79
2023/03/12 07:28:14;;;;;;;18.65;9.20;;;;;;;2.13;100.00;100780.06;5072639;28;20036;-79
2023/03/12 07:30:40;;;;;;;17.83;10.23;;;;;;;2.16;100.00;100778.41;5093470;28;20548;-79
2023/03/12 07:33:08;;;;;;;18.55;10.65;;;;;;;2.17;100.00;100774.09;5086103;28;20020;-80
2023/03/12 07:35:33;;;;;;;17.05;10.07;;;;;;;2.22;100.00;100778.44;5094676;28;20023;-80
2023/03/12 07:37:59;;;;;;;19.50;10.05;;;;;;;2.21;100.00;100769.00;5078932;28;20056;-80
2023/03/12 07:40:25;;;;;;;19.73;10.85;;;;;;;2.26;100.00;100795.63;5094628;28;20046;-80
2023/03/12 07:42:51;;;;;;;19.30;10.77;;;;;;;2.27;100.00;100781.06;5081085;28;20455;-80
2023/03/12 07:45:16;;;;;;;20.05;10.75;;;;;;;2.30;100.00;100771.66;5087246;28;20016;-80
2023/03/12 07:47:42;;;;;;;23.75;11.50;;;;;;;2.25;100.00;100778.47;5094261;28;20024;-79
2023/03/12 07:50:08;;;;;;;15.77;10.82;;;;;;;2.32;100.00;100789.66;5094299;28;20035;-80
2023/03/12 07:52:33;;;;;;;21.52;11.70;;;;;;;2.37;100.00;100782.88;5093202;28;20365;-79
2023/03/12 07:54:59;;;;;;;18.08;10.75;;;;;;;2.40;100.00;100785.47;5079501;28;20064;-80
2023/03/12 07:57:24;;;;;;;20.60;11.52;;;;;;;2.44;100.00;100786.34;5082190;28;20024;-79
2023/03/12 07:59:49;;;;;;;19.33;12.57;;;;;;;2.45;100.00;100786.38;5089986;28;20044;-79
2023/03/12 08:02:15;;;;;;;24.00;12.05;;;;;;;2.48;100.00;100781.22;5094340;28;20525;-79
2023/03/12 08:04:40;;;;;;;19.08;11.98;;;;;;;2.54;100.00;100776.16;5080639;28;20025;-79
2023/03/12 08:07:06;;;;;;;19.58;12.68;;;;;;;2.62;100.00;100772.78;5093627;28;20024;-79
2023/03/12 08:09:32;;;;;;;24.98;12.35;;;;;;;2.69;100.00;100764.25;5085054;28;20380;-79
2023/03/12 08:11:58;;;;;;;22.10;13.25;;;;;;;2.77;100.00;100772.88;5077735;28;20108;-79
2023/03/12 08:14:23;;;;;;;23.45;12.90;;;;;;;2.77;100.00;100768.59;5094139;28;20533;-79
2023/03/12 08:16:48;;;;;;;22.92;13.57;;;;;;;2.80;100.00;100758.31;5093522;28;20032;-79
2023/03/12 08:19:15;;;;;;;24.92;13.73;;;;;;;2.91;100.00;100771.28;5088417;28;20012;-79
2023/03/12 08:21:40;;;;;;;21.05;13.02;;;;;;;2.97;100.00;100770.44;5084277;28;20019;-79
2023/03/12 08:24:06;;;;;;;23.73;12.88;;;;;;;3.04;100.00;100773.09;5089172;28;20046;-79
2023/03/12 08:26:31;;;;;;;19.83;13.73;;;;;;;3.08;100.00;100763.66;5079904;28;20112;-79
2023/03/12 08:28:59;;;;;;;24.55;14.35;;;;;;;3.19;100.00;100771.44;5070791;28;20024;-79
2023/03/12 08:31:24;;;;;;;19.75;12.80;;;;;;;3.14;100.00;100753.41;5093048;28;20024;-79
2023/03/12 08:33:49;;;;;;;21.15;13.38;;;;;;;3.37;100.00;100779.28;5085593;28;20028;-79
2023/03/12 08:36:15;;;;;;;18.95;13.02;;;;;;;3.43;100.00;100781.91;5093373;28;20460;-79
2023/03/12 08:38:40;;;;;;;19.77;13.35;;;;;;;3.23;100.00;100737.09;5087582;28;20029;-79
2023/03/12 08:41:05;;;;;;;25.60;13.93;;;;;;;3.58;100.00;100785.38;5070751;28;20467;-79
2023/03/12 08:43:31;;;;;;;20.38;14.13;;;;;;;3.70;100.00;100791.47;5087844;28;20030;-79
2023/03/12 08:45:58;;;;;;;21.63;13.02;;;;;;;3.75;100.00;100794.91;5087527;28;20099;-79
2023/03/12 08:48:23;;;;;;;22.50;14.32;;;;;;;3.87;100.00;100798.38;5072401;28;20107;-79
2023/03/12 08:50:49;;;;;;;22.95;15.02;;;;;;;3.90;100.00;100791.53;5072614;28;20021;-79
2023/03/12 08:53:15;;;;;;;24.95;13.90;;;;;;;3.95;100.00;100801.84;5072303;28;20109;-78
2023/03/12 08:55:40;;;;;;;25.55;15.38;;;;;;;4.06;100.00;100812.22;5070904;28;20028;-79
2023/03/12 08:58:08;;;;;;;25.63;15.98;;;;;;;4.10;100.00;100801.03;5070885;28;20028;-79
2023/03/12 09:00:34;;;;;;;30.63;16.00;;;;;;;4.19;100.00;100808.81;5071654;28;20041;-79
2023/03/12 09:02:59;;;;;;;27.60;16.65;;;;;;;4.23;100.00;100811.38;5071572;28;20032;-79
2023/03/12 09:05:28;;;;;;;45.03;18.35;;;;;;;4.33;100.00;100806.25;5072887;28;20499;-79
2023/03/12 09:07:54;;;;;;;58.60;19.42;;;;;;;4.40;100.00;100808.81;5068487;28;20028;-79
2023/03/12 09:10:19;;;;;;;36.60;19.65;;;;;;;4.52;100.00;100810.56;5071831;28;20383;-79
2023/03/12 09:12:44;;;;;;;37.35;18.88;;;;;;;4.59;100.00;100806.25;5070862;28;20145;-79
2023/03/12 09:15:10;;;;;;;38.53;19.38;;;;;;;4.69;100.00;100811.44;5071981;28;20031;-79
2023/03/12 09:17:36;;;;;;;40.45;21.85;;;;;;;4.88;100.00;100809.72;5071679;28;20071;-79
2023/03/12 09:20:07;;;;;;;40.90;21.75;;;;;;;5.02;100.00;100809.69;5072579;28;20021;-79
2023/03/12 09:22:32;;;;;;;41.50;22.73;;;;;;;5.17;100.00;100798.47;5074358;28;20055;-80
2023/03/12 09:24:57;;;;;;;41.65;21.20;;;;;;;5.29;100.00;100805.31;5089147;28;20708;-79
2023/03/12 09:27:22;;;;;;;36.03;20.63;;;;;;;5.37;100.00;100809.63;5079140;28;20025;-79
2023/03/12 09:29:50;;;;;;;42.83;23.30;;;;;;;5.47;100.00;100807.00;5076577;28;20024;-79
2023/03/12 09:32:15;;;;;;;41.50;21.05;;;;;;;5.53;100.00;100794.06;5072536;28;20020;-79
2023/03/12 09:34:41;;;;;;;42.00;23.45;;;;;;;5.67;100.00;100801.78;5070673;28;20460;-79
2023/03/12 09:37:06;;;;;;;42.22;22.70;;;;;;;5.78;100.00;100798.25;5069763;28;20069;-79
2023/03/12 09:39:31;;;;;;;39.85;22.98;;;;;;;5.87;100.00;100800.81;5071544;28;20025;-79
2023/03/12 09:41:57;;;;;;;38.97;21.90;;;;;;;5.95;100.00;100800.81;5072359;28;20020;-79
2023/03/12 09:44:38;;;;;;;41.72;23.67;;;;;;;6.01;100.00;100800.75;5071173;28;20549;-80
2023/03/12 09:47:28;;;;;;;35.55;20.80;;;;;;;6.10;100.00;100816.25;5070716;28;20375;-79
2023/03/12 09:50:04;;;;;;;36.90;21.35;;;;;;;6.09;100.00;100803.31;5070248;28;20036;-78
2023/03/12 09:52:47;;;;;;;36.17;21.65;;;;;;;6.21;100.00;100815.31;5071510;28;20055;-79
2023/03/12 09:55:17;;;;;;;43.22;23.58;;;;;;;6.26;100.00;100835.16;5069854;28;20017;-79
2023/03/12 09:57:43;;;;;;;38.35;22.17;;;;;;;6.29;100.00;100839.44;5069964;28;20036;-79
2023/03/12 10:00:15;;;;;;;36.55;22.42;;;;;;;6.28;100.00;100837.75;5069604;28;20056;-79
2023/03/12 10:03:06;;;;;;;36.22;22.45;;;;;;;6.31;100.00;100824.75;5071631;28;20498;-79
2023/03/12 10:05:40;;;;;;;38.15;22.67;;;;;;;6.37;100.00;100836.81;5071412;28;20055;-79
2023/03/12 10:08:27;;;;;;;38.53;22.90;;;;;;;6.44;100.00;100834.19;5071432;28;20047;-79
2023/03/12 10:11:24;;;;;;;39.58;24.10;;;;;;;6.56;100.00;100834.06;5071941;28;20059;-79
2023/03/12 10:13:59;;;;;;;40.75;23.67;;;;;;;6.71;100.00;100830.53;5067488;28;20020;-79
2023/03/12 10:16:53;;;;;;;45.88;25.27;;;;;;;6.79;100.00;100836.50;5068310;28;20101;-79
2023/03/12 10:19:19;;;;;;;;;;;;;;;6.82;100.00;100835.63;5068308;28;20032;-79
2023/03/12 10:21:56;;;;;;;40.17;22.80;;;;;;;6.90;100.00;100838.13;5078220;28;19925;-79
2023/03/12 10:24:35;;;;;;;48.53;24.55;;;;;;;6.96;100.00;100831.16;5082447;28;20468;-79
2023/03/12 10:27:00;;;;;;;42.58;24.52;;;;;;;6.99;100.00;100831.13;5079282;28;20112;-79
2023/03/12 10:29:30;;;;;;;48.97;25.45;;;;;;;7.05;100.00;100835.41;5077694;28;20284;-79
2023/03/12 10:32:10;;;;;;;49.83;27.25;;;;;;;7.00;100.00;100825.09;5091955;28;20505;-80
2023/03/12 10:34:50;;;;;;;51.58;25.08;;;;;;;7.10;100.00;100833.66;5086159;28;20104;-79
2023/03/12 10:37:27;;;;;;;48.25;25.10;;;;;;;7.24;100.00;100824.00;5079001;28;20164;-79
2023/03/12 10:40:01;;;;;;;55.17;27.13;;;;;;;7.37;100.00;100836.84;5062654;28;20043;-79
2023/03/12 10:42:28;;;;;;;53.78;25.85;;;;;;;7.55;100.00;100833.19;5085963;28;20052;-79
2023/03/12 10:44:59;;;;;;;60.67;26.70;;;;;;;7.66;100.00;100816.63;5091889;28;20031;-79
2023/03/12 10:47:43;;;;;;;46.95;23.95;;;;;;;7.90;100.00;100819.78;5091232;28;20101;-79
2023/03/12 10:50:19;;;;;;;54.33;25.35;;;;;;;8.12;100.00;100823.84;5074446;28;20127;-79
2023/03/12 10:52:47;;;;;;;49.80;23.05;;;;;;;8.20;100.00;100808.13;5077856;28;20024;-79
2023/03/12 10:55:23;;;;;;;44.22;22.35;;;;;;;8.19;100.00;100822.00;5091243;28;20016;-79
2023/03/12 10:57:49;;;;;;;48.92;21.42;;;;;;;8.27;100.00;100819.28;5091838;28;20108;-79
2023/03/12 11:00:33;;;;;;;48.10;21.17;;;;;;;8.48;100.00;100819.03;5071164;28;20087;-79
2023/03/12 11:03:04;;;;;;;42.92;20.80;;;;;;;8.82;100.00;100826.28;5072629;28;20063;-79
2023/03/12 11:05:52;;;;;;;35.92;19.25;;;;;;;9.02;100.00;100832.00;5093653;28;20391;-79
2023/03/12 11:08:29;;;;;;;44.72;18.27;;;;;;;9.08;100.00;100816.28;5078884;28;20044;-79
2023/03/12 11:10:56;;;;;;;40.58;17.77;;;;;;;9.09;100.00;100833.63;5076098;28;20051;-79
2023/03/12 11:13:34;;;;;;;38.83;16.10;;;;;;;9.10;100.00;100830.13;5090897;28;20016;-78
2023/03/12 11:16:19;;;;;;;43.47;17.38;;;;;;;9.19;100.00;100812.63;5086308;28;20435;-78
2023/03/12 11:19:03;;;;;;;30.60;15.02;;;;;;;9.18;100.00;100836.94;5078812;28;20028;-78
2023/03/12 11:21:34;;;;;;;39.22;14.80;;;;;;;9.04;100.00;100826.78;5083740;28;20077;-77
2023/03/12 11:23:59;;;;;;;39.90;14.70;;;;;;;9.01;100.00;100843.28;5078871;28;20044;-74